UAL165 PGUM-RCTP
Flight info
| Callsign | UAL165 |
|---|---|
| Flight time | 3h 51m |
| Altitude | 34000 |
| Route | LADSS DCT KYWEE DCT KEITH R595 GRACE GRACE1A |
| Aircraft | B38M/M-SDE1FGHILORVWXY/HB1 |
Departure
| Time | 2026-05-06 20:55 |
|---|---|
| Airport | Antonio B. Won Pat International Airport (PGUM) |
Arrival
| Time | 2026-05-07 00:46 |
|---|---|
| Airport | Taiwan Taoyuan International Airport (RCTP) |
| Time | Latitude | Longitude | Altitude | Speed | Heading |
|---|---|---|---|---|---|
| 2026-05-06 20:12 | 13.49431 | 144.80930 | 271 ft | 0 kts | 241° |
| 2026-05-06 20:47 | 13.49433 | 144.80934 | 271 ft | 2 kts | 241° |
| 2026-05-06 20:47 | 13.49441 | 144.80947 | 272 ft | 2 kts | 242° |
| 2026-05-06 20:47 | 13.49448 | 144.80961 | 272 ft | 2 kts | 242° |
| 2026-05-06 20:48 | 13.49455 | 144.80974 | 273 ft | 2 kts | 242° |
| 2026-05-06 20:48 | 13.49460 | 144.80982 | 273 ft | 2 kts | 242° |
| 2026-05-06 20:48 | 13.49471 | 144.80993 | 274 ft | 2 kts | 201° |
| 2026-05-06 20:48 | 13.49486 | 144.80995 | 273 ft | 2 kts | 168° |
| 2026-05-06 20:49 | 13.49493 | 144.80993 | 272 ft | 1 kts | 150° |
| 2026-05-06 20:49 | 13.49498 | 144.80990 | 272 ft | 0 kts | 151° |
| 2026-05-06 20:52 | 13.49497 | 144.80990 | 272 ft | 1 kts | 151° |
| 2026-05-06 20:52 | 13.49482 | 144.80998 | 273 ft | 4 kts | 150° |
| 2026-05-06 20:52 | 13.49452 | 144.81014 | 277 ft | 7 kts | 153° |
| 2026-05-06 20:52 | 13.49390 | 144.81047 | 283 ft | 13 kts | 152° |
| 2026-05-06 20:53 | 13.49307 | 144.81035 | 286 ft | 12 kts | 203° |
| 2026-05-06 20:53 | 13.49247 | 144.81009 | 287 ft | 7 kts | 203° |
| 2026-05-06 20:53 | 13.49202 | 144.80989 | 288 ft | 10 kts | 203° |
| 2026-05-06 20:53 | 13.49120 | 144.80955 | 291 ft | 16 kts | 194° |
| 2026-05-06 20:54 | 13.49024 | 144.80873 | 290 ft | 28 kts | 244° |
| 2026-05-06 20:54 | 13.48868 | 144.80536 | 276 ft | 85 kts | 245° |
| 2026-05-06 20:54 | 13.48526 | 144.79784 | 258 ft | 145 kts | 244° |
| 2026-05-06 20:54 | 13.48027 | 144.78694 | 238 ft | 191 kts | 245° |
| 2026-05-06 20:55 | 13.47454 | 144.77415 | 612 ft | 202 kts | 245° |
| 2026-05-06 20:55 | 13.46865 | 144.76075 | 1137 ft | 212 kts | 245° |
| 2026-05-06 20:55 | 13.46241 | 144.74662 | 1634 ft | 224 kts | 245° |
| 2026-05-06 20:55 | 13.45600 | 144.73193 | 2232 ft | 230 kts | 245° |
| 2026-05-06 20:56 | 13.44936 | 144.71645 | 2711 ft | 245 kts | 244° |
| 2026-05-06 20:56 | 13.44247 | 144.69994 | 3186 ft | 261 kts | 248° |
| 2026-05-06 20:56 | 13.43941 | 144.68121 | 3629 ft | 278 kts | 280° |
| 2026-05-06 20:56 | 13.44521 | 144.66224 | 4209 ft | 286 kts | 298° |
| 2026-05-06 20:57 | 13.45437 | 144.64349 | 4762 ft | 299 kts | 300° |
| 2026-05-06 20:57 | 13.46333 | 144.62418 | 5551 ft | 303 kts | 297° |
| 2026-05-06 20:57 | 13.47189 | 144.60429 | 6318 ft | 307 kts | 296° |
| 2026-05-06 20:57 | 13.48002 | 144.58406 | 7078 ft | 311 kts | 293° |
| 2026-05-06 20:58 | 13.48765 | 144.56331 | 7821 ft | 314 kts | 292° |
| 2026-05-06 20:58 | 13.49521 | 144.54230 | 8522 ft | 318 kts | 292° |
| 2026-05-06 20:58 | 13.50294 | 144.52104 | 9245 ft | 320 kts | 292° |
| 2026-05-06 20:58 | 13.51088 | 144.49954 | 9952 ft | 323 kts | 292° |
| 2026-05-06 20:59 | 13.51899 | 144.47781 | 10462 ft | 334 kts | 292° |
| 2026-05-06 20:59 | 13.52750 | 144.45518 | 10834 ft | 348 kts | 292° |
| 2026-05-06 20:59 | 13.53639 | 144.43156 | 11170 ft | 362 kts | 292° |
| 2026-05-06 20:59 | 13.54559 | 144.40709 | 11479 ft | 376 kts | 292° |
| 2026-05-06 21:00 | 13.55514 | 144.38165 | 11872 ft | 386 kts | 292° |
| 2026-05-06 21:00 | 13.56473 | 144.35602 | 12500 ft | 388 kts | 292° |
| 2026-05-06 21:00 | 13.57447 | 144.32996 | 13055 ft | 391 kts | 292° |
| 2026-05-06 21:00 | 13.58426 | 144.30377 | 13589 ft | 395 kts | 292° |
| 2026-05-06 21:01 | 13.59408 | 144.27748 | 14105 ft | 399 kts | 292° |
| 2026-05-06 21:01 | 13.60402 | 144.25086 | 14655 ft | 401 kts | 292° |
| 2026-05-06 21:01 | 13.61404 | 144.22403 | 15120 ft | 406 kts | 292° |
| 2026-05-06 21:01 | 13.62411 | 144.19707 | 15676 ft | 407 kts | 292° |
| 2026-05-06 21:02 | 13.63429 | 144.16984 | 16136 ft | 411 kts | 292° |
| 2026-05-06 21:02 | 13.64455 | 144.14235 | 16658 ft | 413 kts | 292° |
| 2026-05-06 21:02 | 13.65486 | 144.11470 | 17134 ft | 416 kts | 292° |
| 2026-05-06 21:02 | 13.66520 | 144.08697 | 17613 ft | 418 kts | 292° |
| 2026-05-06 21:03 | 13.67559 | 144.05911 | 18114 ft | 420 kts | 292° |
| 2026-05-06 21:03 | 13.68600 | 144.03116 | 18617 ft | 421 kts | 292° |
| 2026-05-06 21:03 | 13.69645 | 144.00309 | 19104 ft | 423 kts | 292° |
| 2026-05-06 21:03 | 13.70695 | 143.97488 | 19574 ft | 425 kts | 292° |
| 2026-05-06 21:04 | 13.71755 | 143.94642 | 20061 ft | 426 kts | 292° |
| 2026-05-06 21:04 | 13.72814 | 143.91800 | 20523 ft | 428 kts | 291° |
| 2026-05-06 21:04 | 13.73878 | 143.88942 | 20945 ft | 431 kts | 291° |
| 2026-05-06 21:04 | 13.74945 | 143.86073 | 21424 ft | 431 kts | 291° |
| 2026-05-06 21:05 | 13.76013 | 143.83200 | 21856 ft | 433 kts | 291° |
| 2026-05-06 21:05 | 13.77088 | 143.80306 | 22256 ft | 436 kts | 291° |
| 2026-05-06 21:05 | 13.78165 | 143.77406 | 22707 ft | 436 kts | 291° |
| 2026-05-06 21:05 | 13.79250 | 143.74482 | 23110 ft | 438 kts | 291° |
| 2026-05-06 21:06 | 13.80330 | 143.71572 | 23545 ft | 438 kts | 292° |
| 2026-05-06 21:06 | 13.81413 | 143.68650 | 23912 ft | 439 kts | 292° |
| 2026-05-06 21:06 | 13.82496 | 143.65729 | 24374 ft | 438 kts | 292° |
| 2026-05-06 21:06 | 13.83579 | 143.62808 | 24743 ft | 440 kts | 292° |
| 2026-05-06 21:07 | 13.84662 | 143.59883 | 25122 ft | 440 kts | 292° |
| 2026-05-06 21:07 | 13.85748 | 143.56948 | 25507 ft | 441 kts | 292° |
| 2026-05-06 21:07 | 13.86842 | 143.53991 | 25848 ft | 442 kts | 292° |
| 2026-05-06 21:07 | 13.87932 | 143.51047 | 26219 ft | 442 kts | 292° |
| 2026-05-06 21:08 | 13.89025 | 143.48093 | 26495 ft | 445 kts | 292° |
| 2026-05-06 21:08 | 13.90118 | 143.45135 | 26869 ft | 444 kts | 292° |
| 2026-05-06 21:08 | 13.91218 | 143.42159 | 27118 ft | 447 kts | 293° |
| 2026-05-06 21:08 | 13.92316 | 143.39187 | 27481 ft | 447 kts | 293° |
| 2026-05-06 21:09 | 13.93420 | 143.36199 | 27783 ft | 448 kts | 293° |
| 2026-05-06 21:09 | 13.94532 | 143.33188 | 28098 ft | 449 kts | 292° |
| 2026-05-06 21:09 | 13.95638 | 143.30190 | 28383 ft | 450 kts | 293° |
| 2026-05-06 21:09 | 13.96742 | 143.27196 | 28693 ft | 451 kts | 292° |
| 2026-05-06 21:10 | 13.97850 | 143.24187 | 28987 ft | 452 kts | 292° |
| 2026-05-06 21:10 | 13.98961 | 143.21170 | 29276 ft | 454 kts | 292° |
| 2026-05-06 21:10 | 14.00076 | 143.18138 | 29549 ft | 455 kts | 292° |
| 2026-05-06 21:10 | 14.01189 | 143.15111 | 29980 ft | 453 kts | 292° |
| 2026-05-06 21:11 | 14.02298 | 143.12091 | 30555 ft | 447 kts | 292° |
| 2026-05-06 21:11 | 14.03388 | 143.09118 | 31031 ft | 444 kts | 292° |
| 2026-05-06 21:11 | 14.04472 | 143.06164 | 31437 ft | 442 kts | 292° |
| 2026-05-06 21:11 | 14.05547 | 143.03235 | 31894 ft | 438 kts | 292° |
| 2026-05-06 21:12 | 14.06617 | 143.00320 | 32292 ft | 436 kts | 292° |
| 2026-05-06 21:12 | 14.07685 | 142.97411 | 32620 ft | 436 kts | 292° |
| 2026-05-06 21:12 | 14.08754 | 142.94500 | 32945 ft | 435 kts | 292° |
| 2026-05-06 21:12 | 14.09827 | 142.91577 | 33277 ft | 435 kts | 292° |
| 2026-05-06 21:13 | 14.10893 | 142.88671 | 33582 ft | 435 kts | 292° |
| 2026-05-06 21:13 | 14.11954 | 142.85775 | 33905 ft | 434 kts | 292° |
| 2026-05-06 21:13 | 14.13023 | 142.82858 | 33919 ft | 437 kts | 292° |
| 2026-05-06 21:14 | 14.15155 | 142.77034 | 33910 ft | 433 kts | 292° |
| 2026-05-06 21:14 | 14.17289 | 142.71196 | 33904 ft | 435 kts | 292° |
| 2026-05-06 21:15 | 14.19419 | 142.65373 | 33899 ft | 434 kts | 292° |
| 2026-05-06 21:15 | 14.21534 | 142.59579 | 33903 ft | 434 kts | 292° |
| 2026-05-06 21:16 | 14.23652 | 142.53776 | 33907 ft | 434 kts | 292° |
| 2026-05-06 21:16 | 14.25779 | 142.47936 | 33902 ft | 435 kts | 292° |
| 2026-05-06 21:17 | 14.27896 | 142.42121 | 33902 ft | 434 kts | 292° |
| 2026-05-06 21:17 | 14.30014 | 142.36303 | 33901 ft | 436 kts | 292° |
| 2026-05-06 21:18 | 14.32146 | 142.30439 | 33903 ft | 436 kts | 292° |
| 2026-05-06 21:18 | 14.34267 | 142.24602 | 33901 ft | 436 kts | 292° |
| 2026-05-06 21:19 | 14.36382 | 142.18775 | 33904 ft | 436 kts | 292° |
| 2026-05-06 21:19 | 14.38497 | 142.12943 | 33905 ft | 436 kts | 292° |
| 2026-05-06 21:20 | 14.40621 | 142.07080 | 33903 ft | 435 kts | 292° |
| 2026-05-06 21:20 | 14.42739 | 142.01229 | 33904 ft | 436 kts | 292° |
| 2026-05-06 21:21 | 14.44852 | 141.95384 | 33911 ft | 437 kts | 292° |
| 2026-05-06 21:21 | 14.46976 | 141.89508 | 33918 ft | 437 kts | 292° |
| 2026-05-06 21:22 | 14.49090 | 141.83655 | 33919 ft | 437 kts | 292° |
| 2026-05-06 21:22 | 14.51205 | 141.77792 | 33920 ft | 437 kts | 291° |
| 2026-05-06 21:23 | 14.53319 | 141.71926 | 33925 ft | 437 kts | 291° |
| 2026-05-06 21:23 | 14.55439 | 141.66038 | 33928 ft | 437 kts | 291° |
| 2026-05-06 21:24 | 14.57549 | 141.60176 | 33931 ft | 438 kts | 291° |
| 2026-05-06 21:24 | 14.59664 | 141.54295 | 33931 ft | 438 kts | 291° |
| 2026-05-06 21:25 | 14.61786 | 141.48385 | 33930 ft | 437 kts | 291° |
| 2026-05-06 21:25 | 14.63902 | 141.42494 | 33933 ft | 438 kts | 291° |
| 2026-05-06 21:26 | 14.66009 | 141.36616 | 33933 ft | 437 kts | 291° |
| 2026-05-06 21:26 | 14.68118 | 141.30731 | 33934 ft | 439 kts | 291° |
| 2026-05-06 21:27 | 14.70232 | 141.24825 | 33932 ft | 439 kts | 291° |
| 2026-05-06 21:27 | 14.72336 | 141.18933 | 33936 ft | 437 kts | 291° |
| 2026-05-06 21:28 | 14.74437 | 141.13052 | 33934 ft | 439 kts | 291° |
| 2026-05-06 21:28 | 14.76552 | 141.07128 | 33935 ft | 438 kts | 291° |
| 2026-05-06 21:29 | 14.78656 | 141.01229 | 33936 ft | 439 kts | 291° |
| 2026-05-06 21:29 | 14.80757 | 140.95331 | 33940 ft | 439 kts | 291° |
| 2026-05-06 21:30 | 14.82853 | 140.89443 | 33937 ft | 439 kts | 291° |
| 2026-05-06 21:30 | 14.84957 | 140.83528 | 33940 ft | 439 kts | 291° |
| 2026-05-06 21:31 | 14.87318 | 140.77753 | 33940 ft | 438 kts | 296° |
| 2026-05-06 21:31 | 14.89945 | 140.72094 | 33940 ft | 438 kts | 296° |
| 2026-05-06 21:32 | 14.92600 | 140.66407 | 33941 ft | 439 kts | 296° |
| 2026-05-06 21:32 | 14.96504 | 140.57900 | 33941 ft | 439 kts | 295° |
| 2026-05-06 21:33 | 14.99084 | 140.52208 | 33940 ft | 437 kts | 295° |
| 2026-05-06 21:33 | 15.01659 | 140.46505 | 33942 ft | 438 kts | 295° |
| 2026-05-06 21:34 | 15.04233 | 140.40793 | 33942 ft | 439 kts | 295° |
| 2026-05-06 21:34 | 15.06799 | 140.35089 | 33941 ft | 438 kts | 295° |
| 2026-05-06 21:35 | 15.09363 | 140.29383 | 33942 ft | 439 kts | 295° |
| 2026-05-06 21:35 | 15.11937 | 140.23652 | 33941 ft | 439 kts | 295° |
| 2026-05-06 21:36 | 15.14499 | 140.17942 | 33942 ft | 439 kts | 295° |
| 2026-05-06 21:36 | 15.17062 | 140.12226 | 33943 ft | 439 kts | 295° |
| 2026-05-06 21:37 | 15.19631 | 140.06492 | 33941 ft | 438 kts | 295° |
| 2026-05-06 21:37 | 15.22186 | 140.00784 | 33941 ft | 438 kts | 295° |
| 2026-05-06 21:38 | 15.24738 | 139.95078 | 33941 ft | 439 kts | 295° |
| 2026-05-06 21:38 | 15.27294 | 139.89361 | 33941 ft | 439 kts | 295° |
| 2026-05-06 21:39 | 15.29856 | 139.83622 | 33944 ft | 438 kts | 295° |
| 2026-05-06 21:39 | 15.32405 | 139.77912 | 33946 ft | 439 kts | 295° |
| 2026-05-06 21:40 | 15.34952 | 139.72199 | 33945 ft | 438 kts | 295° |
| 2026-05-06 21:40 | 15.37510 | 139.66457 | 33940 ft | 438 kts | 295° |
| 2026-05-06 21:41 | 15.40056 | 139.60738 | 33932 ft | 438 kts | 295° |
| 2026-05-06 21:41 | 15.42600 | 139.55017 | 33932 ft | 437 kts | 295° |
| 2026-05-06 21:42 | 15.45140 | 139.49304 | 33933 ft | 438 kts | 295° |
| 2026-05-06 21:42 | 15.47686 | 139.43570 | 33935 ft | 437 kts | 295° |
| 2026-05-06 21:43 | 15.50222 | 139.37856 | 33934 ft | 438 kts | 295° |
| 2026-05-06 21:43 | 15.52755 | 139.32143 | 33933 ft | 438 kts | 295° |
| 2026-05-06 21:44 | 15.55295 | 139.26409 | 33925 ft | 437 kts | 295° |
| 2026-05-06 21:44 | 15.57821 | 139.20703 | 33924 ft | 437 kts | 295° |
| 2026-05-06 21:45 | 15.60346 | 139.14992 | 33929 ft | 438 kts | 295° |
| 2026-05-06 21:45 | 15.62879 | 139.09262 | 33933 ft | 438 kts | 295° |
| 2026-05-06 21:46 | 15.65409 | 139.03530 | 33935 ft | 437 kts | 295° |
| 2026-05-06 21:46 | 15.67935 | 138.97803 | 33933 ft | 437 kts | 295° |
| 2026-05-06 21:47 | 15.70467 | 138.92059 | 33931 ft | 437 kts | 295° |
| 2026-05-06 21:47 | 15.73001 | 138.86306 | 33930 ft | 436 kts | 295° |
| 2026-05-06 21:48 | 15.75514 | 138.80595 | 33931 ft | 437 kts | 295° |
| 2026-05-06 21:48 | 15.78034 | 138.74862 | 33931 ft | 436 kts | 295° |
| 2026-05-06 21:49 | 15.80542 | 138.69150 | 33931 ft | 437 kts | 295° |
| 2026-05-06 21:49 | 15.83065 | 138.63401 | 33929 ft | 437 kts | 295° |
| 2026-05-06 21:50 | 15.85575 | 138.57680 | 33928 ft | 436 kts | 295° |
| 2026-05-06 21:50 | 15.88079 | 138.51967 | 33927 ft | 435 kts | 295° |
| 2026-05-06 21:51 | 15.90594 | 138.46223 | 33926 ft | 436 kts | 295° |
| 2026-05-06 21:51 | 15.93095 | 138.40507 | 33927 ft | 436 kts | 295° |
| 2026-05-06 21:52 | 15.95594 | 138.34790 | 33927 ft | 436 kts | 295° |
| 2026-05-06 21:52 | 15.98094 | 138.29067 | 33924 ft | 437 kts | 295° |
| 2026-05-06 21:53 | 16.00599 | 138.23322 | 33922 ft | 436 kts | 295° |
| 2026-05-06 21:53 | 16.03092 | 138.17601 | 33923 ft | 436 kts | 295° |
| 2026-05-06 21:54 | 16.05586 | 138.11878 | 33923 ft | 436 kts | 295° |
| 2026-05-06 21:54 | 16.08083 | 138.06140 | 33926 ft | 435 kts | 294° |
| 2026-05-06 21:55 | 16.10567 | 138.00428 | 33938 ft | 435 kts | 295° |
| 2026-05-06 21:55 | 16.13056 | 137.94698 | 33938 ft | 435 kts | 295° |
| 2026-05-06 21:56 | 16.15538 | 137.88980 | 33943 ft | 435 kts | 295° |
| 2026-05-06 21:56 | 16.18028 | 137.83236 | 33939 ft | 435 kts | 295° |
| 2026-05-06 21:57 | 16.20512 | 137.77503 | 33937 ft | 436 kts | 294° |
| 2026-05-06 21:57 | 16.22993 | 137.71772 | 33938 ft | 435 kts | 294° |
| 2026-05-06 21:58 | 16.25483 | 137.66020 | 33939 ft | 435 kts | 295° |
| 2026-05-06 21:58 | 16.27956 | 137.60295 | 33942 ft | 435 kts | 294° |
| 2026-05-06 21:59 | 16.30428 | 137.54572 | 33941 ft | 435 kts | 294° |
| 2026-05-06 21:59 | 16.32898 | 137.48845 | 33941 ft | 435 kts | 294° |
| 2026-05-06 22:00 | 16.35382 | 137.43081 | 33943 ft | 435 kts | 294° |
| 2026-05-06 22:00 | 16.37845 | 137.37362 | 33941 ft | 434 kts | 294° |
| 2026-05-06 22:01 | 16.40314 | 137.31624 | 33941 ft | 435 kts | 294° |
| 2026-05-06 22:01 | 16.42786 | 137.25877 | 33942 ft | 434 kts | 294° |
| 2026-05-06 22:02 | 16.45246 | 137.20147 | 33942 ft | 434 kts | 294° |
| 2026-05-06 22:02 | 16.47709 | 137.14408 | 33939 ft | 434 kts | 294° |
| 2026-05-06 22:03 | 16.50174 | 137.08661 | 33934 ft | 435 kts | 294° |
| 2026-05-06 22:03 | 16.52650 | 137.02885 | 33934 ft | 435 kts | 294° |
| 2026-05-06 22:04 | 16.55100 | 136.97161 | 33928 ft | 434 kts | 294° |
| 2026-05-06 22:04 | 16.57547 | 136.91441 | 33935 ft | 434 kts | 294° |
| 2026-05-06 22:05 | 16.60002 | 136.85692 | 33935 ft | 435 kts | 294° |
| 2026-05-06 22:05 | 16.62453 | 136.79949 | 33934 ft | 433 kts | 294° |
| 2026-05-06 22:06 | 16.65124 | 136.74328 | 33931 ft | 435 kts | 302° |
| 2026-05-06 22:06 | 16.66981 | 136.71856 | 33935 ft | 435 kts | 314° |
| 2026-05-06 22:06 | 16.69276 | 136.69822 | 33935 ft | 435 kts | 324° |
| 2026-05-06 22:07 | 16.74621 | 136.66769 | 33938 ft | 439 kts | 334° |
| 2026-05-06 22:07 | 16.80293 | 136.64430 | 33936 ft | 438 kts | 338° |
| 2026-05-06 22:08 | 16.86035 | 136.62259 | 33933 ft | 438 kts | 338° |
| 2026-05-06 22:08 | 16.91780 | 136.60064 | 33933 ft | 439 kts | 338° |
| 2026-05-06 22:09 | 16.97505 | 136.57836 | 33929 ft | 439 kts | 338° |
| 2026-05-06 22:09 | 17.03217 | 136.55590 | 33935 ft | 439 kts | 337° |
| 2026-05-06 22:10 | 17.08931 | 136.53334 | 33934 ft | 439 kts | 337° |
| 2026-05-06 22:10 | 17.14684 | 136.51056 | 33934 ft | 439 kts | 337° |
| 2026-05-06 22:11 | 17.20409 | 136.48790 | 33935 ft | 438 kts | 337° |
| 2026-05-06 22:11 | 17.26111 | 136.46530 | 33940 ft | 438 kts | 337° |
| 2026-05-06 22:12 | 17.31833 | 136.44259 | 33942 ft | 438 kts | 337° |
| 2026-05-06 22:12 | 17.37536 | 136.41993 | 33947 ft | 438 kts | 337° |
| 2026-05-06 22:13 | 17.43230 | 136.39728 | 33940 ft | 437 kts | 337° |
| 2026-05-06 22:13 | 17.48938 | 136.37458 | 33950 ft | 438 kts | 337° |
| 2026-05-06 22:14 | 17.54666 | 136.35180 | 33950 ft | 438 kts | 337° |
| 2026-05-06 22:14 | 17.60362 | 136.32912 | 33957 ft | 438 kts | 336° |
| 2026-05-06 22:15 | 17.66073 | 136.30636 | 33954 ft | 437 kts | 337° |
| 2026-05-06 22:15 | 17.71773 | 136.28365 | 33953 ft | 437 kts | 336° |
| 2026-05-06 22:16 | 17.77455 | 136.26099 | 33950 ft | 438 kts | 336° |
| 2026-05-06 22:16 | 17.83156 | 136.23820 | 33944 ft | 438 kts | 336° |
| 2026-05-06 22:17 | 17.88852 | 136.21543 | 33945 ft | 438 kts | 336° |
| 2026-05-06 22:17 | 17.94568 | 136.19260 | 33948 ft | 438 kts | 337° |
| 2026-05-06 22:18 | 18.00259 | 136.16984 | 33944 ft | 438 kts | 336° |
| 2026-05-06 22:18 | 18.05955 | 136.14703 | 33944 ft | 438 kts | 336° |
| 2026-05-06 22:19 | 18.11674 | 136.12411 | 33943 ft | 438 kts | 336° |
| 2026-05-06 22:19 | 18.17367 | 136.10131 | 33948 ft | 438 kts | 336° |
| 2026-05-06 22:20 | 18.23070 | 136.07844 | 33954 ft | 437 kts | 336° |
| 2026-05-06 22:20 | 18.28771 | 136.05554 | 33953 ft | 438 kts | 336° |
| 2026-05-06 22:21 | 18.34492 | 136.03255 | 33961 ft | 437 kts | 336° |
| 2026-05-06 22:21 | 18.40176 | 136.00968 | 33963 ft | 437 kts | 336° |
| 2026-05-06 22:22 | 18.45852 | 135.98687 | 33971 ft | 437 kts | 336° |
| 2026-05-06 22:22 | 18.51550 | 135.96394 | 33966 ft | 436 kts | 336° |
| 2026-05-06 22:23 | 18.57233 | 135.94105 | 33963 ft | 437 kts | 336° |
| 2026-05-06 22:23 | 18.62904 | 135.91815 | 33970 ft | 435 kts | 336° |
| 2026-05-06 22:24 | 18.68580 | 135.89526 | 33969 ft | 436 kts | 336° |
| 2026-05-06 22:24 | 18.74277 | 135.87228 | 33972 ft | 436 kts | 336° |
| 2026-05-06 22:25 | 18.79946 | 135.84938 | 33977 ft | 436 kts | 336° |
| 2026-05-06 22:25 | 18.85613 | 135.82646 | 33972 ft | 435 kts | 336° |
| 2026-05-06 22:26 | 18.91289 | 135.80352 | 33968 ft | 435 kts | 336° |
| 2026-05-06 22:26 | 18.96955 | 135.78059 | 33964 ft | 436 kts | 336° |
| 2026-05-06 22:27 | 19.02622 | 135.75760 | 33964 ft | 436 kts | 336° |
| 2026-05-06 22:27 | 19.08280 | 135.73465 | 33966 ft | 436 kts | 336° |
| 2026-05-06 22:28 | 19.13958 | 135.71161 | 33967 ft | 436 kts | 336° |
| 2026-05-06 22:28 | 19.19613 | 135.68865 | 33969 ft | 436 kts | 336° |
| 2026-05-06 22:29 | 19.25270 | 135.66566 | 33971 ft | 436 kts | 336° |
| 2026-05-06 22:29 | 19.30941 | 135.64261 | 33970 ft | 435 kts | 336° |
| 2026-05-06 22:30 | 19.36595 | 135.61960 | 33970 ft | 435 kts | 336° |
| 2026-05-06 22:30 | 19.42254 | 135.59655 | 33976 ft | 435 kts | 336° |
| 2026-05-06 22:31 | 19.47916 | 135.57347 | 33975 ft | 435 kts | 336° |
| 2026-05-06 22:31 | 19.53582 | 135.55036 | 33980 ft | 435 kts | 336° |
| 2026-05-06 22:32 | 19.59231 | 135.52732 | 33977 ft | 435 kts | 336° |
| 2026-05-06 22:32 | 19.64875 | 135.50428 | 33978 ft | 436 kts | 336° |
| 2026-05-06 22:33 | 19.70563 | 135.48102 | 33981 ft | 434 kts | 336° |
| 2026-05-06 22:33 | 19.76207 | 135.45790 | 33984 ft | 435 kts | 336° |
| 2026-05-06 22:34 | 19.81861 | 135.43473 | 33984 ft | 435 kts | 336° |
| 2026-05-06 22:34 | 19.87498 | 135.41163 | 33982 ft | 435 kts | 336° |
| 2026-05-06 22:35 | 19.93180 | 135.38833 | 33977 ft | 437 kts | 336° |
| 2026-05-06 22:35 | 19.98848 | 135.36508 | 33974 ft | 436 kts | 335° |
| 2026-05-06 22:36 | 20.04512 | 135.34183 | 33977 ft | 436 kts | 335° |
| 2026-05-06 22:36 | 20.10187 | 135.31852 | 33977 ft | 436 kts | 335° |
| 2026-05-06 22:37 | 20.15854 | 135.29521 | 33980 ft | 436 kts | 335° |
| 2026-05-06 22:37 | 20.21508 | 135.27194 | 33980 ft | 436 kts | 335° |
| 2026-05-06 22:38 | 20.27173 | 135.24859 | 33980 ft | 437 kts | 335° |
| 2026-05-06 22:38 | 20.32876 | 135.22505 | 33983 ft | 437 kts | 335° |
| 2026-05-06 22:39 | 20.38543 | 135.20167 | 33985 ft | 437 kts | 335° |
| 2026-05-06 22:39 | 20.44200 | 135.17831 | 33988 ft | 436 kts | 335° |
| 2026-05-06 22:40 | 20.49890 | 135.15480 | 33991 ft | 436 kts | 335° |
| 2026-05-06 22:40 | 20.55547 | 135.13141 | 33991 ft | 436 kts | 335° |
| 2026-05-06 22:41 | 20.64054 | 135.09620 | 33996 ft | 437 kts | 335° |
| 2026-05-06 22:42 | 20.69750 | 135.07260 | 33998 ft | 438 kts | 335° |
| 2026-05-06 22:42 | 20.75429 | 135.04905 | 34002 ft | 437 kts | 335° |
| 2026-05-06 22:43 | 20.81101 | 135.02551 | 34003 ft | 438 kts | 335° |
| 2026-05-06 22:43 | 20.86777 | 135.00194 | 34008 ft | 438 kts | 335° |
| 2026-05-06 22:44 | 20.92479 | 134.97807 | 34010 ft | 437 kts | 333° |
| 2026-05-06 22:44 | 20.97632 | 134.94516 | 34008 ft | 429 kts | 315° |
| 2026-05-06 22:45 | 21.01434 | 134.89711 | 34009 ft | 423 kts | 301° |
| 2026-05-06 22:45 | 21.04076 | 134.84104 | 34007 ft | 421 kts | 290° |
| 2026-05-06 22:46 | 21.06149 | 134.78275 | 34005 ft | 421 kts | 289° |
| 2026-05-06 22:46 | 21.08177 | 134.72418 | 34004 ft | 421 kts | 289° |
| 2026-05-06 22:47 | 21.10248 | 134.66564 | 33995 ft | 420 kts | 290° |
| 2026-05-06 22:47 | 21.12344 | 134.60716 | 33992 ft | 421 kts | 290° |
| 2026-05-06 22:48 | 21.14444 | 134.54894 | 33991 ft | 421 kts | 290° |
| 2026-05-06 22:48 | 21.16550 | 134.49053 | 33990 ft | 421 kts | 290° |
| 2026-05-06 22:49 | 21.18656 | 134.43206 | 33989 ft | 420 kts | 290° |
| 2026-05-06 22:49 | 21.20753 | 134.37377 | 33992 ft | 421 kts | 290° |
| 2026-05-06 22:50 | 21.22846 | 134.31548 | 33992 ft | 420 kts | 289° |
| 2026-05-06 22:50 | 21.24935 | 134.25729 | 33993 ft | 420 kts | 289° |
| 2026-05-06 22:51 | 21.27035 | 134.19874 | 33989 ft | 420 kts | 289° |
| 2026-05-06 22:51 | 21.29128 | 134.14037 | 33989 ft | 421 kts | 289° |
| 2026-05-06 22:52 | 21.31210 | 134.08213 | 33989 ft | 419 kts | 289° |
| 2026-05-06 22:52 | 21.33301 | 134.02365 | 33987 ft | 420 kts | 289° |
| 2026-05-06 22:53 | 21.35385 | 133.96514 | 33987 ft | 420 kts | 289° |
| 2026-05-06 22:53 | 21.37464 | 133.90676 | 33987 ft | 420 kts | 289° |
| 2026-05-06 22:54 | 21.39544 | 133.84839 | 33987 ft | 420 kts | 289° |
| 2026-05-06 22:54 | 21.41624 | 133.78986 | 33986 ft | 419 kts | 289° |
| 2026-05-06 22:55 | 21.43695 | 133.73153 | 33987 ft | 419 kts | 289° |
| 2026-05-06 22:55 | 21.45763 | 133.67327 | 33987 ft | 419 kts | 289° |
| 2026-05-06 22:56 | 21.47833 | 133.61482 | 33986 ft | 419 kts | 289° |
| 2026-05-06 22:56 | 21.49888 | 133.55665 | 33985 ft | 418 kts | 289° |
| 2026-05-06 22:57 | 21.51941 | 133.49850 | 33988 ft | 419 kts | 289° |
| 2026-05-06 22:57 | 21.53998 | 133.44017 | 33988 ft | 418 kts | 289° |
| 2026-05-06 22:58 | 21.56056 | 133.38177 | 33988 ft | 419 kts | 289° |
| 2026-05-06 22:58 | 21.58112 | 133.32335 | 33986 ft | 420 kts | 289° |
| 2026-05-06 22:59 | 21.60159 | 133.26511 | 33987 ft | 418 kts | 289° |
| 2026-05-06 22:59 | 21.62217 | 133.20651 | 33987 ft | 419 kts | 289° |
| 2026-05-06 23:00 | 21.64262 | 133.14821 | 33988 ft | 418 kts | 289° |
| 2026-05-06 23:00 | 21.66298 | 133.09001 | 33986 ft | 417 kts | 289° |
| 2026-05-06 23:01 | 21.68337 | 133.03164 | 33988 ft | 417 kts | 289° |
| 2026-05-06 23:01 | 21.70376 | 132.97324 | 33986 ft | 418 kts | 289° |
| 2026-05-06 23:02 | 21.72413 | 132.91486 | 33987 ft | 418 kts | 289° |
| 2026-05-06 23:02 | 21.74450 | 132.85644 | 33988 ft | 419 kts | 289° |
| 2026-05-06 23:03 | 21.76491 | 132.79764 | 33987 ft | 418 kts | 289° |
| 2026-05-06 23:03 | 21.78521 | 132.73914 | 33987 ft | 418 kts | 289° |
| 2026-05-06 23:04 | 21.80546 | 132.68073 | 33985 ft | 419 kts | 289° |
| 2026-05-06 23:04 | 21.82570 | 132.62235 | 33986 ft | 417 kts | 289° |
| 2026-05-06 23:05 | 21.84597 | 132.56379 | 33988 ft | 418 kts | 289° |
| 2026-05-06 23:05 | 21.86617 | 132.50541 | 33989 ft | 416 kts | 289° |
| 2026-05-06 23:06 | 21.88627 | 132.44714 | 33989 ft | 417 kts | 289° |
| 2026-05-06 23:06 | 21.90643 | 132.38869 | 33988 ft | 416 kts | 289° |
| 2026-05-06 23:07 | 21.92660 | 132.33014 | 33987 ft | 417 kts | 289° |
| 2026-05-06 23:07 | 21.94673 | 132.27160 | 33985 ft | 417 kts | 289° |
| 2026-05-06 23:08 | 21.96679 | 132.21313 | 33990 ft | 417 kts | 289° |
| 2026-05-06 23:08 | 21.98693 | 132.15435 | 33987 ft | 417 kts | 289° |
| 2026-05-06 23:09 | 22.00696 | 132.09586 | 33990 ft | 419 kts | 289° |
| 2026-05-06 23:09 | 22.02700 | 132.03728 | 33990 ft | 418 kts | 289° |
| 2026-05-06 23:10 | 22.04709 | 131.97844 | 33989 ft | 417 kts | 289° |
| 2026-05-06 23:10 | 22.06701 | 131.92004 | 33988 ft | 417 kts | 289° |
| 2026-05-06 23:11 | 22.08690 | 131.86159 | 33988 ft | 417 kts | 289° |
| 2026-05-06 23:11 | 22.10679 | 131.80310 | 33991 ft | 416 kts | 289° |
| 2026-05-06 23:12 | 22.12673 | 131.74443 | 33987 ft | 416 kts | 289° |
| 2026-05-06 23:12 | 22.14655 | 131.68605 | 33990 ft | 417 kts | 289° |
| 2026-05-06 23:13 | 22.16638 | 131.62748 | 33999 ft | 417 kts | 289° |
| 2026-05-06 23:13 | 22.18623 | 131.56885 | 33998 ft | 417 kts | 289° |
| 2026-05-06 23:14 | 22.20603 | 131.51024 | 33992 ft | 417 kts | 289° |
| 2026-05-06 23:14 | 22.22584 | 131.45156 | 33987 ft | 417 kts | 289° |
| 2026-05-06 23:15 | 22.24557 | 131.39303 | 33989 ft | 416 kts | 289° |
| 2026-05-06 23:15 | 22.26534 | 131.33421 | 33986 ft | 417 kts | 289° |
| 2026-05-06 23:16 | 22.28503 | 131.27559 | 33988 ft | 417 kts | 289° |
| 2026-05-06 23:16 | 22.30469 | 131.21700 | 33989 ft | 418 kts | 289° |
| 2026-05-06 23:17 | 22.32447 | 131.15803 | 33990 ft | 418 kts | 289° |
| 2026-05-06 23:17 | 22.34414 | 131.09929 | 33992 ft | 418 kts | 289° |
| 2026-05-06 23:18 | 22.36381 | 131.04050 | 33997 ft | 417 kts | 289° |
| 2026-05-06 23:18 | 22.38343 | 130.98175 | 33993 ft | 417 kts | 289° |
| 2026-05-06 23:19 | 22.40308 | 130.92288 | 33989 ft | 417 kts | 289° |
| 2026-05-06 23:19 | 22.42277 | 130.86389 | 33988 ft | 418 kts | 289° |
| 2026-05-06 23:20 | 22.44239 | 130.80494 | 33985 ft | 417 kts | 289° |
| 2026-05-06 23:20 | 22.46212 | 130.74563 | 33987 ft | 419 kts | 289° |
| 2026-05-06 23:21 | 22.48169 | 130.68678 | 33987 ft | 418 kts | 289° |
| 2026-05-06 23:21 | 22.50122 | 130.62793 | 33985 ft | 417 kts | 289° |
| 2026-05-06 23:22 | 22.52068 | 130.56914 | 33986 ft | 417 kts | 289° |
| 2026-05-06 23:22 | 22.54023 | 130.51003 | 33988 ft | 417 kts | 289° |
| 2026-05-06 23:23 | 22.55975 | 130.45092 | 33987 ft | 418 kts | 289° |
| 2026-05-06 23:23 | 22.57916 | 130.39202 | 33987 ft | 417 kts | 289° |
| 2026-05-06 23:24 | 22.59873 | 130.33263 | 33988 ft | 419 kts | 289° |
| 2026-05-06 23:24 | 22.61818 | 130.27355 | 33987 ft | 417 kts | 289° |
| 2026-05-06 23:25 | 22.63755 | 130.21452 | 33987 ft | 417 kts | 289° |
| 2026-05-06 23:25 | 22.65693 | 130.15545 | 33988 ft | 418 kts | 289° |
| 2026-05-06 23:26 | 22.67635 | 130.09622 | 33986 ft | 417 kts | 289° |
| 2026-05-06 23:26 | 22.69562 | 130.03732 | 33988 ft | 417 kts | 289° |
| 2026-05-06 23:27 | 22.71490 | 129.97829 | 33987 ft | 417 kts | 289° |
| 2026-05-06 23:27 | 22.73428 | 129.91890 | 33987 ft | 418 kts | 289° |
| 2026-05-06 23:28 | 22.75351 | 129.85989 | 33987 ft | 417 kts | 289° |
| 2026-05-06 23:28 | 22.77266 | 129.80100 | 33987 ft | 416 kts | 289° |
| 2026-05-06 23:29 | 22.79185 | 129.74187 | 33986 ft | 417 kts | 289° |
| 2026-05-06 23:29 | 22.81111 | 129.68253 | 33987 ft | 417 kts | 289° |
| 2026-05-06 23:30 | 22.83030 | 129.62330 | 33989 ft | 418 kts | 289° |
| 2026-05-06 23:30 | 22.84947 | 129.56400 | 33987 ft | 417 kts | 289° |
| 2026-05-06 23:31 | 22.86863 | 129.50467 | 33988 ft | 418 kts | 289° |
| 2026-05-06 23:31 | 22.88781 | 129.44520 | 33988 ft | 419 kts | 289° |
| 2026-05-06 23:32 | 22.90691 | 129.38586 | 33987 ft | 418 kts | 289° |
| 2026-05-06 23:32 | 22.92606 | 129.32634 | 33988 ft | 419 kts | 289° |
| 2026-05-06 23:33 | 22.94520 | 129.26676 | 33986 ft | 418 kts | 289° |
| 2026-05-06 23:33 | 22.96424 | 129.20738 | 33988 ft | 418 kts | 289° |
| 2026-05-06 23:34 | 22.98330 | 129.14790 | 33986 ft | 419 kts | 289° |
| 2026-05-06 23:34 | 23.00281 | 129.08838 | 33988 ft | 418 kts | 291° |
| 2026-05-06 23:35 | 23.02732 | 129.03100 | 33988 ft | 420 kts | 296° |
| 2026-05-06 23:35 | 23.05449 | 128.97495 | 33986 ft | 421 kts | 297° |
| 2026-05-06 23:36 | 23.08190 | 128.91898 | 33986 ft | 420 kts | 297° |
| 2026-05-06 23:36 | 23.10916 | 128.86271 | 33984 ft | 421 kts | 297° |
| 2026-05-06 23:37 | 23.13620 | 128.80641 | 33981 ft | 422 kts | 297° |
| 2026-05-06 23:37 | 23.16319 | 128.74994 | 33982 ft | 421 kts | 297° |
| 2026-05-06 23:38 | 23.19012 | 128.69348 | 33981 ft | 421 kts | 297° |
| 2026-05-06 23:38 | 23.21703 | 128.63696 | 33981 ft | 421 kts | 297° |
| 2026-05-06 23:39 | 23.24385 | 128.58056 | 33981 ft | 420 kts | 297° |
| 2026-05-06 23:39 | 23.27070 | 128.52402 | 33977 ft | 422 kts | 297° |
| 2026-05-06 23:40 | 23.29762 | 128.46727 | 33974 ft | 422 kts | 297° |
| 2026-05-06 23:40 | 23.32439 | 128.41077 | 33972 ft | 422 kts | 297° |
| 2026-05-06 23:41 | 23.35112 | 128.35426 | 33973 ft | 422 kts | 297° |
| 2026-05-06 23:41 | 23.37797 | 128.29746 | 33972 ft | 421 kts | 296° |
| 2026-05-06 23:42 | 23.40476 | 128.24077 | 33971 ft | 423 kts | 296° |
| 2026-05-06 23:42 | 23.43153 | 128.18400 | 33972 ft | 423 kts | 296° |
| 2026-05-06 23:43 | 23.45831 | 128.12716 | 33974 ft | 424 kts | 296° |
| 2026-05-06 23:43 | 23.48526 | 128.06990 | 33973 ft | 424 kts | 296° |
| 2026-05-06 23:44 | 23.51204 | 128.01293 | 33973 ft | 424 kts | 296° |
| 2026-05-06 23:44 | 23.53877 | 127.95600 | 33981 ft | 423 kts | 296° |
| 2026-05-06 23:45 | 23.56554 | 127.89890 | 33989 ft | 423 kts | 296° |
| 2026-05-06 23:45 | 23.59207 | 127.84221 | 33997 ft | 421 kts | 296° |
| 2026-05-06 23:46 | 23.61863 | 127.78544 | 33991 ft | 422 kts | 296° |
| 2026-05-06 23:46 | 23.64516 | 127.72867 | 33986 ft | 421 kts | 296° |
| 2026-05-06 23:47 | 23.67177 | 127.67166 | 33987 ft | 422 kts | 296° |
| 2026-05-06 23:47 | 23.69824 | 127.61486 | 33987 ft | 420 kts | 296° |
| 2026-05-06 23:48 | 23.72469 | 127.55806 | 33986 ft | 421 kts | 296° |
| 2026-05-06 23:48 | 23.75119 | 127.50105 | 33987 ft | 421 kts | 296° |
| 2026-05-06 23:49 | 23.77762 | 127.44413 | 33986 ft | 422 kts | 296° |
| 2026-05-06 23:49 | 23.80399 | 127.38725 | 33986 ft | 421 kts | 296° |
| 2026-05-06 23:50 | 23.83034 | 127.33038 | 33987 ft | 421 kts | 296° |
| 2026-05-06 23:50 | 23.86986 | 127.24501 | 33987 ft | 419 kts | 296° |
| 2026-05-06 23:51 | 23.89603 | 127.18837 | 33987 ft | 419 kts | 296° |
| 2026-05-06 23:51 | 23.92216 | 127.13173 | 33987 ft | 419 kts | 296° |
| 2026-05-06 23:52 | 23.94849 | 127.07461 | 33987 ft | 419 kts | 296° |
| 2026-05-06 23:52 | 23.97461 | 127.01788 | 33987 ft | 419 kts | 296° |
| 2026-05-06 23:53 | 24.00074 | 126.96109 | 33987 ft | 419 kts | 296° |
| 2026-05-06 23:53 | 24.02688 | 126.90417 | 33987 ft | 419 kts | 296° |
| 2026-05-06 23:54 | 24.05301 | 126.84716 | 33989 ft | 421 kts | 296° |
| 2026-05-06 23:54 | 24.07913 | 126.79014 | 33987 ft | 420 kts | 296° |
| 2026-05-06 23:55 | 24.10525 | 126.73307 | 33987 ft | 421 kts | 296° |
| 2026-05-06 23:55 | 24.13160 | 126.67563 | 33988 ft | 420 kts | 296° |
| 2026-05-06 23:56 | 24.15833 | 126.61902 | 33989 ft | 420 kts | 297° |
| 2026-05-06 23:56 | 24.18523 | 126.56252 | 33988 ft | 420 kts | 297° |
| 2026-05-06 23:57 | 24.21213 | 126.50589 | 33988 ft | 421 kts | 297° |
| 2026-05-06 23:57 | 24.23917 | 126.44872 | 33987 ft | 421 kts | 297° |
| 2026-05-06 23:58 | 24.26597 | 126.39192 | 33987 ft | 421 kts | 297° |
| 2026-05-06 23:58 | 24.29277 | 126.33505 | 33988 ft | 421 kts | 296° |
| 2026-05-06 23:59 | 24.31967 | 126.27790 | 33988 ft | 422 kts | 296° |
| 2026-05-06 23:59 | 24.34641 | 126.22098 | 33987 ft | 421 kts | 296° |
| 2026-05-07 00:00 | 24.37305 | 126.16418 | 33987 ft | 420 kts | 296° |
| 2026-05-07 00:00 | 24.39973 | 126.10726 | 33986 ft | 421 kts | 296° |
| 2026-05-07 00:01 | 24.42648 | 126.05010 | 33987 ft | 423 kts | 296° |
| 2026-05-07 00:01 | 24.45322 | 125.99293 | 33985 ft | 422 kts | 296° |
| 2026-05-07 00:02 | 24.47987 | 125.93587 | 33988 ft | 422 kts | 296° |
| 2026-05-07 00:02 | 24.50667 | 125.87845 | 33992 ft | 423 kts | 296° |
| 2026-05-07 00:03 | 24.53324 | 125.82139 | 34003 ft | 421 kts | 296° |
| 2026-05-07 00:03 | 24.55981 | 125.76426 | 34002 ft | 422 kts | 296° |
| 2026-05-07 00:04 | 24.58640 | 125.70707 | 34002 ft | 422 kts | 296° |
| 2026-05-07 00:04 | 24.61313 | 125.64951 | 34000 ft | 422 kts | 296° |
| 2026-05-07 00:05 | 24.63972 | 125.59216 | 33997 ft | 423 kts | 296° |
| 2026-05-07 00:05 | 24.66629 | 125.53477 | 33997 ft | 422 kts | 296° |
| 2026-05-07 00:06 | 24.69290 | 125.47721 | 33995 ft | 423 kts | 296° |
| 2026-05-07 00:06 | 24.71940 | 125.41983 | 33993 ft | 423 kts | 296° |
| 2026-05-07 00:07 | 24.74596 | 125.36226 | 33992 ft | 423 kts | 296° |
| 2026-05-07 00:07 | 24.77021 | 125.30358 | 33991 ft | 422 kts | 289° |
| 2026-05-07 00:08 | 24.78461 | 125.24111 | 33991 ft | 423 kts | 280° |
| 2026-05-07 00:08 | 24.79313 | 125.17746 | 33989 ft | 423 kts | 278° |
| 2026-05-07 00:09 | 24.80054 | 125.11352 | 33989 ft | 424 kts | 278° |
| 2026-05-07 00:09 | 24.80810 | 125.04911 | 33988 ft | 425 kts | 278° |
| 2026-05-07 00:10 | 24.81581 | 124.98501 | 33985 ft | 423 kts | 278° |
| 2026-05-07 00:10 | 24.82359 | 124.92106 | 33975 ft | 423 kts | 278° |
| 2026-05-07 00:11 | 24.83137 | 124.85713 | 33965 ft | 423 kts | 278° |
| 2026-05-07 00:11 | 24.83919 | 124.79296 | 33964 ft | 423 kts | 278° |
| 2026-05-07 00:12 | 24.84696 | 124.72893 | 33964 ft | 423 kts | 278° |
| 2026-05-07 00:12 | 24.85468 | 124.66504 | 33966 ft | 422 kts | 278° |
| 2026-05-07 00:13 | 24.86238 | 124.60105 | 33965 ft | 422 kts | 278° |
| 2026-05-07 00:13 | 24.87004 | 124.53719 | 33964 ft | 422 kts | 278° |
| 2026-05-07 00:14 | 24.87769 | 124.47329 | 33964 ft | 424 kts | 278° |
| 2026-05-07 00:14 | 24.88535 | 124.40907 | 33964 ft | 422 kts | 278° |
| 2026-05-07 00:15 | 24.89296 | 124.34492 | 33965 ft | 422 kts | 277° |
| 2026-05-07 00:15 | 24.90050 | 124.28107 | 33964 ft | 421 kts | 277° |
| 2026-05-07 00:16 | 24.90801 | 124.21731 | 33963 ft | 421 kts | 277° |
| 2026-05-07 00:16 | 24.91552 | 124.15337 | 33964 ft | 421 kts | 277° |
| 2026-05-07 00:17 | 24.92301 | 124.08936 | 33964 ft | 421 kts | 277° |
| 2026-05-07 00:17 | 24.93043 | 124.02557 | 33964 ft | 421 kts | 277° |
| 2026-05-07 00:18 | 24.93768 | 123.96183 | 33964 ft | 423 kts | 277° |
| 2026-05-07 00:18 | 24.94449 | 123.89767 | 33963 ft | 421 kts | 277° |
| 2026-05-07 00:19 | 24.95114 | 123.83395 | 33963 ft | 420 kts | 277° |
| 2026-05-07 00:19 | 24.95780 | 123.77035 | 33964 ft | 419 kts | 277° |
| 2026-05-07 00:20 | 24.96450 | 123.70640 | 33963 ft | 421 kts | 277° |
| 2026-05-07 00:20 | 24.97116 | 123.64261 | 33964 ft | 419 kts | 277° |
| 2026-05-07 00:21 | 24.97779 | 123.57899 | 33963 ft | 421 kts | 277° |
| 2026-05-07 00:21 | 24.98440 | 123.51522 | 33963 ft | 420 kts | 277° |
| 2026-05-07 00:22 | 24.99097 | 123.45149 | 33963 ft | 420 kts | 277° |
| 2026-05-07 00:22 | 24.99757 | 123.38734 | 33963 ft | 421 kts | 277° |
| 2026-05-07 00:23 | 25.00412 | 123.32340 | 33962 ft | 420 kts | 277° |
| 2026-05-07 00:23 | 25.01061 | 123.25969 | 33964 ft | 420 kts | 277° |
| 2026-05-07 00:24 | 25.01707 | 123.19602 | 33963 ft | 419 kts | 277° |
| 2026-05-07 00:24 | 25.02352 | 123.13209 | 33962 ft | 420 kts | 277° |
| 2026-05-07 00:25 | 25.02993 | 123.06823 | 33702 ft | 421 kts | 277° |
| 2026-05-07 00:25 | 25.03312 | 123.03638 | 33436 ft | 418 kts | 277° |
| 2026-05-07 00:25 | 25.03627 | 123.00478 | 33167 ft | 416 kts | 277° |
| 2026-05-07 00:26 | 25.03943 | 122.97309 | 32892 ft | 415 kts | 277° |
| 2026-05-07 00:26 | 25.04257 | 122.94162 | 32626 ft | 413 kts | 277° |
| 2026-05-07 00:26 | 25.04568 | 122.91032 | 32357 ft | 412 kts | 277° |
| 2026-05-07 00:26 | 25.04878 | 122.87914 | 32088 ft | 410 kts | 277° |
| 2026-05-07 00:27 | 25.05185 | 122.84807 | 31818 ft | 408 kts | 277° |
| 2026-05-07 00:27 | 25.05490 | 122.81720 | 31551 ft | 406 kts | 277° |
| 2026-05-07 00:27 | 25.05795 | 122.78644 | 31282 ft | 405 kts | 276° |
| 2026-05-07 00:27 | 25.06099 | 122.75575 | 31015 ft | 403 kts | 276° |
| 2026-05-07 00:28 | 25.06400 | 122.72515 | 30689 ft | 398 kts | 276° |
| 2026-05-07 00:28 | 25.06694 | 122.69516 | 30248 ft | 393 kts | 276° |
| 2026-05-07 00:28 | 25.06985 | 122.66553 | 29749 ft | 390 kts | 276° |
| 2026-05-07 00:28 | 25.07272 | 122.63613 | 29234 ft | 387 kts | 276° |
| 2026-05-07 00:29 | 25.07557 | 122.60692 | 28739 ft | 383 kts | 276° |
| 2026-05-07 00:29 | 25.07839 | 122.57793 | 28244 ft | 381 kts | 275° |
| 2026-05-07 00:30 | 25.08671 | 122.49201 | 26722 ft | 373 kts | 275° |
| 2026-05-07 00:30 | 25.08943 | 122.46377 | 26226 ft | 371 kts | 275° |
| 2026-05-07 00:30 | 25.09214 | 122.43571 | 25735 ft | 368 kts | 275° |
| 2026-05-07 00:30 | 25.09482 | 122.40789 | 25232 ft | 366 kts | 275° |
| 2026-05-07 00:31 | 25.09749 | 122.38019 | 24735 ft | 364 kts | 275° |
| 2026-05-07 00:31 | 25.10047 | 122.35261 | 24099 ft | 364 kts | 277° |
| 2026-05-07 00:31 | 25.10473 | 122.32507 | 23299 ft | 363 kts | 279° |
| 2026-05-07 00:31 | 25.10962 | 122.29815 | 22606 ft | 359 kts | 280° |
| 2026-05-07 00:32 | 25.11463 | 122.27147 | 21879 ft | 356 kts | 280° |
| 2026-05-07 00:32 | 25.11956 | 122.24503 | 21178 ft | 352 kts | 280° |
| 2026-05-07 00:32 | 25.12432 | 122.21887 | 20477 ft | 349 kts | 280° |
| 2026-05-07 00:32 | 25.12893 | 122.19291 | 19788 ft | 346 kts | 280° |
| 2026-05-07 00:33 | 25.13345 | 122.16712 | 19080 ft | 343 kts | 280° |
| 2026-05-07 00:33 | 25.13791 | 122.14141 | 18356 ft | 341 kts | 279° |
| 2026-05-07 00:33 | 25.14228 | 122.11600 | 17651 ft | 338 kts | 279° |
| 2026-05-07 00:33 | 25.14659 | 122.09085 | 16990 ft | 334 kts | 279° |
| 2026-05-07 00:34 | 25.15085 | 122.06590 | 16320 ft | 331 kts | 279° |
| 2026-05-07 00:34 | 25.15506 | 122.04123 | 15689 ft | 327 kts | 279° |
| 2026-05-07 00:34 | 25.15922 | 122.01682 | 15021 ft | 324 kts | 279° |
| 2026-05-07 00:34 | 25.16332 | 121.99272 | 14396 ft | 320 kts | 279° |
| 2026-05-07 00:35 | 25.16741 | 121.96869 | 13769 ft | 316 kts | 279° |
| 2026-05-07 00:35 | 25.17141 | 121.94512 | 13136 ft | 313 kts | 279° |
| 2026-05-07 00:35 | 25.17536 | 121.92187 | 12502 ft | 310 kts | 279° |
| 2026-05-07 00:35 | 25.17927 | 121.89879 | 11869 ft | 307 kts | 279° |
| 2026-05-07 00:36 | 25.18315 | 121.87591 | 11264 ft | 303 kts | 279° |
| 2026-05-07 00:36 | 25.18696 | 121.85346 | 10935 ft | 290 kts | 279° |
| 2026-05-07 00:36 | 25.19057 | 121.83213 | 10631 ft | 278 kts | 279° |
| 2026-05-07 00:36 | 25.19406 | 121.81152 | 10196 ft | 273 kts | 279° |
| 2026-05-07 00:37 | 25.19751 | 121.79105 | 9657 ft | 272 kts | 279° |
| 2026-05-07 00:37 | 25.20095 | 121.77068 | 9143 ft | 271 kts | 279° |
| 2026-05-07 00:37 | 25.20437 | 121.75041 | 8604 ft | 270 kts | 280° |
| 2026-05-07 00:37 | 25.20775 | 121.73032 | 8205 ft | 264 kts | 280° |
| 2026-05-07 00:38 | 25.21107 | 121.71064 | 7872 ft | 256 kts | 281° |
| 2026-05-07 00:38 | 25.21426 | 121.69168 | 7558 ft | 249 kts | 281° |
| 2026-05-07 00:38 | 25.21747 | 121.67272 | 7265 ft | 258 kts | 281° |
| 2026-05-07 00:38 | 25.22079 | 121.65304 | 6911 ft | 265 kts | 281° |
| 2026-05-07 00:39 | 25.22412 | 121.63323 | 6580 ft | 262 kts | 281° |
| 2026-05-07 00:39 | 25.22741 | 121.61362 | 6255 ft | 260 kts | 281° |
| 2026-05-07 00:39 | 25.23068 | 121.59410 | 5932 ft | 258 kts | 281° |
| 2026-05-07 00:39 | 25.23394 | 121.57460 | 5598 ft | 257 kts | 282° |
| 2026-05-07 00:40 | 25.23714 | 121.55540 | 5304 ft | 254 kts | 281° |
| 2026-05-07 00:40 | 25.24029 | 121.53662 | 5176 ft | 244 kts | 280° |
| 2026-05-07 00:40 | 25.24331 | 121.51870 | 5110 ft | 232 kts | 280° |
| 2026-05-07 00:40 | 25.24618 | 121.50164 | 5044 ft | 222 kts | 279° |
| 2026-05-07 00:41 | 25.24893 | 121.48489 | 4980 ft | 225 kts | 278° |
| 2026-05-07 00:41 | 25.24911 | 121.46769 | 4881 ft | 227 kts | 255° |
| 2026-05-07 00:41 | 25.24192 | 121.45230 | 4790 ft | 224 kts | 232° |
| 2026-05-07 00:41 | 25.23159 | 121.43933 | 4617 ft | 227 kts | 228° |
| 2026-05-07 00:42 | 25.22093 | 121.42634 | 4221 ft | 230 kts | 229° |
| 2026-05-07 00:42 | 25.21045 | 121.41312 | 3901 ft | 228 kts | 230° |
| 2026-05-07 00:42 | 25.20018 | 121.40000 | 3589 ft | 225 kts | 230° |
| 2026-05-07 00:42 | 25.18998 | 121.38703 | 3285 ft | 223 kts | 230° |
| 2026-05-07 00:43 | 25.17990 | 121.37425 | 2989 ft | 220 kts | 229° |
| 2026-05-07 00:43 | 25.16986 | 121.36152 | 2695 ft | 218 kts | 229° |
| 2026-05-07 00:43 | 25.15995 | 121.34895 | 2405 ft | 217 kts | 229° |
| 2026-05-07 00:43 | 25.15021 | 121.33657 | 2120 ft | 207 kts | 229° |
| 2026-05-07 00:44 | 25.14113 | 121.32503 | 1867 ft | 190 kts | 228° |
| 2026-05-07 00:44 | 25.13278 | 121.31446 | 1601 ft | 176 kts | 228° |
| 2026-05-07 00:44 | 25.12507 | 121.30469 | 1399 ft | 161 kts | 228° |
| 2026-05-07 00:44 | 25.11803 | 121.29578 | 1196 ft | 147 kts | 228° |
| 2026-05-07 00:45 | 25.11136 | 121.28735 | 1037 ft | 145 kts | 229° |
| 2026-05-07 00:45 | 25.10479 | 121.27904 | 819 ft | 143 kts | 229° |
| 2026-05-07 00:45 | 25.09826 | 121.27080 | 630 ft | 144 kts | 229° |
| 2026-05-07 00:45 | 25.09172 | 121.26259 | 423 ft | 142 kts | 229° |
| 2026-05-07 00:46 | 25.08521 | 121.25447 | 245 ft | 141 kts | 228° |
| 2026-05-07 00:46 | 25.07883 | 121.24636 | 119 ft | 136 kts | 229° |
| 2026-05-07 00:46 | 25.07368 | 121.23981 | 117 ft | 85 kts | 229° |
| 2026-05-07 00:46 | 25.07146 | 121.23662 | 116 ft | 30 kts | 245° |
| 2026-05-07 00:47 | 25.07101 | 121.23485 | 117 ft | 18 kts | 260° |
| 2026-05-07 00:47 | 25.07080 | 121.23362 | 116 ft | 15 kts | 259° |
| 2026-05-07 00:47 | 25.07113 | 121.23261 | 116 ft | 19 kts | 317° |
| 2026-05-07 00:47 | 25.07211 | 121.23175 | 116 ft | 14 kts | 347° |
| 2026-05-07 00:48 | 25.07284 | 121.23232 | 116 ft | 16 kts | 50° |
| 2026-05-07 00:48 | 25.07372 | 121.23345 | 116 ft | 23 kts | 49° |
| 2026-05-07 00:48 | 25.07445 | 121.23371 | 116 ft | 9 kts | 320° |
| 2026-05-07 00:48 | 25.07489 | 121.23328 | 116 ft | 10 kts | 319° |
| 2026-05-07 00:49 | 25.07508 | 121.23311 | 116 ft | 0 kts | 319° |